Time,TemperatureF,DewpointF,PressureIn,WindDirection,WindDirectionDegrees,WindSpeedMPH,WindSpeedGustMPH,Humidity,HourlyPrecipIn,Conditions,Clouds,dailyrainin,SoftwareType,DateUTC
2013-02-05 00:14:00,63.3,62.7,29.73,ESE,112,0.0,-999.0,98,-99.99,,,0.00,Acu-Link.com,2013-02-05 06:14:00,
2013-02-05 00:30:00,63.3,62.7,29.72,South,180,0.0,-999.0,98,-99.99,,,0.00,Acu-Link.com,2013-02-05 06:30:00,
2013-02-05 00:45:00,63.3,62.7,29.72,SE,135,0.0,-999.0,98,-99.99,,,0.00,Acu-Link.com,2013-02-05 06:45:00,
2013-02-05 01:00:00,63.5,62.9,29.73,SSW,202,0.0,-999.0,98,-99.99,,,0.00,Acu-Link.com,2013-02-05 07:00:00,
2013-02-05 01:15:00,63.5,62.9,29.72,SSW,202,0.0,-999.0,98,-99.99,,,0.00,Acu-Link.com,2013-02-05 07:15:00,
2013-02-05 01:30:00,63.5,62.9,29.73,SSE,157,0.0,-999.0,98,-99.99,,,0.00,Acu-Link.com,2013-02-05 07:30:00,
2013-02-05 01:45:00,63.5,62.9,29.73,SSE,157,0.0,-999.0,98,-99.99,,,0.00,Acu-Link.com,2013-02-05 07:45:00,
2013-02-05 02:00:00,63.7,63.1,29.72,South,180,0.0,-999.0,98,-99.99,,,0.00,Acu-Link.com,2013-02-05 08:00:00,
2013-02-05 02:15:00,63.7,63.1,29.72,SSW,202,0.0,-999.0,98,-99.99,,,0.00,Acu-Link.com,2013-02-05 08:15:00,
2013-02-05 02:30:00,64.0,63.4,29.72,SSW,202,0.0,-999.0,98,-99.99,,,0.00,Acu-Link.com,2013-02-05 08:30:00,
2013-02-05 02:46:00,64.0,63.4,29.72,ESE,112,1.7,-999.0,98,-99.99,,,0.00,Acu-Link.com,2013-02-05 08:46:00,
2013-02-05 03:01:00,64.2,63.6,29.72,SSE,157,0.0,-999.0,98,-99.99,,,0.00,Acu-Link.com,2013-02-05 09:01:00,
2013-02-05 03:16:00,64.2,63.6,29.72,ESE,112,0.0,-999.0,98,-99.99,,,0.00,Acu-Link.com,2013-02-05 09:16:00,
2013-02-05 03:31:00,64.2,63.6,29.73,SE,135,0.0,-999.0,98,-99.99,,,0.00,Acu-Link.com,2013-02-05 09:31:00,
2013-02-05 03:46:00,64.2,63.6,29.73,SSE,157,0.0,-999.0,98,-99.99,,,0.00,Acu-Link.com,2013-02-05 09:46:00,
2013-02-05 04:01:00,64.4,63.8,29.73,SSE,157,0.0,-999.0,98,-99.99,,,0.00,Acu-Link.com,2013-02-05 10:01:00,
2013-02-05 04:16:00,64.6,64.0,29.73,SSE,157,0.0,-999.0,98,-99.99,,,0.00,Acu-Link.com,2013-02-05 10:16:00,
2013-02-05 04:31:00,64.8,64.2,29.73,SE,135,0.0,-999.0,98,-99.99,,,0.00,Acu-Link.com,2013-02-05 10:31:00,
2013-02-05 04:46:00,64.8,64.2,29.73,SSE,157,0.0,-999.0,98,-99.99,,,0.00,Acu-Link.com,2013-02-05 10:46:00,
2013-02-05 05:02:00,64.9,64.3,29.73,ESE,112,0.0,-999.0,98,-99.99,,,0.00,Acu-Link.com,2013-02-05 11:02:00,
2013-02-05 05:17:00,64.9,64.3,29.74,SSW,202,0.0,-999.0,98,-99.99,,,0.00,Acu-Link.com,2013-02-05 11:17:00,
2013-02-05 05:32:00,65.3,64.7,29.74,SSW,202,0.0,-999.0,98,-99.99,,,0.00,Acu-Link.com,2013-02-05 11:32:00,
2013-02-05 05:47:00,65.7,65.1,29.75,West,270,0.0,-999.0,98,-99.99,,,0.00,Acu-Link.com,2013-02-05 11:47:00,
2013-02-05 06:02:00,65.8,65.2,29.74,South,180,0.0,-999.0,98,-99.99,,,0.00,Acu-Link.com,2013-02-05 12:02:00,
2013-02-05 06:17:00,65.8,65.2,29.75,SW,225,0.0,-999.0,98,-99.99,,,0.00,Acu-Link.com,2013-02-05 12:17:00,
2013-02-05 06:32:00,65.8,65.2,29.76,SSE,157,0.0,-999.0,98,-99.99,,,0.00,Acu-Link.com,2013-02-05 12:32:00,
2013-02-05 06:47:00,65.8,65.2,29.76,South,180,0.0,-999.0,98,-99.99,,,0.00,Acu-Link.com,2013-02-05 12:47:00,
2013-02-05 07:02:00,65.8,65.2,29.76,WSW,247,2.2,-999.0,98,-99.99,,,0.00,Acu-Link.com,2013-02-05 13:02:00,
2013-02-05 07:18:00,66.2,65.6,29.77,South,180,0.0,-999.0,98,-99.99,,,0.00,Acu-Link.com,2013-02-05 13:18:00,
2013-02-05 07:33:00,66.2,65.6,29.77,South,180,0.0,-999.0,98,-99.99,,,0.00,Acu-Link.com,2013-02-05 13:33:00,
2013-02-05 07:48:00,66.6,66.0,29.78,South,180,0.0,-999.0,98,-99.99,,,0.00,Acu-Link.com,2013-02-05 13:48:00,
2013-02-05 08:03:00,66.7,66.1,29.78,South,180,0.0,-999.0,98,-99.99,,,0.00,Acu-Link.com,2013-02-05 14:03:00,
2013-02-05 08:18:00,67.3,66.7,29.80,SW,225,0.0,-999.0,98,-99.99,,,0.00,Acu-Link.com,2013-02-05 14:18:00,
2013-02-05 08:33:00,67.3,66.7,29.80,SSW,202,0.0,-999.0,98,-99.99,,,0.00,Acu-Link.com,2013-02-05 14:33:00,
2013-02-05 08:48:00,67.5,66.9,29.80,SW,225,0.0,-999.0,98,-99.99,,,0.00,Acu-Link.com,2013-02-05 14:48:00,
2013-02-05 09:03:00,67.6,67.0,29.82,West,270,0.0,-999.0,98,-99.99,,,0.00,Acu-Link.com,2013-02-05 15:03:00,
2013-02-05 09:18:00,67.8,67.2,29.82,WSW,247,0.0,-999.0,98,-99.99,,,0.00,Acu-Link.com,2013-02-05 15:18:00,
2013-02-05 09:33:00,68.0,67.4,29.82,WNW,292,0.0,-999.0,98,-99.99,,,0.00,Acu-Link.com,2013-02-05 15:33:00,
2013-02-05 09:49:00,68.5,67.9,29.83,South,180,0.0,-999.0,98,-99.99,,,0.00,Acu-Link.com,2013-02-05 15:49:00,
2013-02-05 10:04:00,69.1,68.5,29.83,SSW,202,0.0,-999.0,98,-99.99,,,0.00,Acu-Link.com,2013-02-05 16:04:00,
2013-02-05 10:19:00,69.6,69.0,29.83,ESE,112,0.0,-999.0,98,-99.99,,,0.00,Acu-Link.com,2013-02-05 16:19:00,
2013-02-05 10:34:00,69.3,68.7,29.83,SSE,157,0.0,-999.0,98,-99.99,,,0.00,Acu-Link.com,2013-02-05 16:34:00,
2013-02-05 10:49:00,70.3,69.7,29.83,West,270,2.2,-999.0,98,-99.99,,,0.00,Acu-Link.com,2013-02-05 16:49:00,
2013-02-05 11:04:00,72.3,71.7,29.83,SW,225,2.2,-999.0,98,-99.99,,,0.00,Acu-Link.com,2013-02-05 17:04:00,
2013-02-05 11:19:00,72.5,71.9,29.82,SW,225,3.7,-999.0,98,-99.99,,,0.00,Acu-Link.com,2013-02-05 17:19:00,
2013-02-05 11:34:00,73.6,73.0,29.82,SSE,157,4.2,-999.0,98,-99.99,,,0.00,Acu-Link.com,2013-02-05 17:34:00,
2013-02-05 11:49:00,74.7,74.1,29.81,SW,225,2.2,-999.0,98,-99.99,,,0.00,Acu-Link.com,2013-02-05 17:49:00,
2013-02-05 12:05:00,74.7,74.1,29.81,SSW,202,4.2,-999.0,98,-99.99,,,0.00,Acu-Link.com,2013-02-05 18:05:00,
2013-02-05 12:20:00,74.8,74.2,29.81,SW,225,1.1,-999.0,98,-99.99,,,0.00,Acu-Link.com,2013-02-05 18:20:00,
2013-02-05 12:35:00,75.4,74.8,29.80,ESE,112,2.2,-999.0,98,-99.99,,,0.00,Acu-Link.com,2013-02-05 18:35:00,
2013-02-05 12:50:00,77.2,76.6,29.79,South,180,0.0,-999.0,98,-99.99,,,0.00,Acu-Link.com,2013-02-05 18:50:00,
2013-02-05 13:05:00,75.7,75.1,29.78,SW,225,1.1,-999.0,98,-99.99,,,0.00,Acu-Link.com,2013-02-05 19:05:00,
2013-02-05 13:20:00,77.5,76.9,29.77,SSW,202,1.1,-999.0,98,-99.99,,,0.00,Acu-Link.com,2013-02-05 19:20:00,
2013-02-05 13:35:00,78.3,77.7,29.76,South,180,1.7,-999.0,98,-99.99,,,0.00,Acu-Link.com,2013-02-05 19:35:00,
2013-02-05 13:50:00,78.1,77.5,29.76,West,270,2.7,-999.0,98,-99.99,,,0.00,Acu-Link.com,2013-02-05 19:50:00,
2013-02-05 14:06:00,79.3,78.7,29.75,South,180,1.7,-999.0,98,-99.99,,,0.00,Acu-Link.com,2013-02-05 20:06:00,
2013-02-05 14:21:00,79.9,79.3,29.75,SW,225,2.2,-999.0,98,-99.99,,,0.00,Acu-Link.com,2013-02-05 20:21:00,
2013-02-05 14:36:00,78.8,78.2,29.74,South,180,1.1,-999.0,98,-99.99,,,0.00,Acu-Link.com,2013-02-05 20:36:00,
2013-02-05 14:51:00,79.3,78.7,29.74,WNW,292,0.0,-999.0,98,-99.99,,,0.00,Acu-Link.com,2013-02-05 20:51:00,
2013-02-05 15:06:00,80.1,79.5,29.74,South,180,2.2,-999.0,98,-99.99,,,0.00,Acu-Link.com,2013-02-05 21:06:00,
2013-02-05 15:21:00,81.5,80.9,29.73,West,270,2.2,-999.0,98,-99.99,,,0.00,Acu-Link.com,2013-02-05 21:21:00,
2013-02-05 15:37:00,81.0,80.4,29.73,West,270,0.0,-999.0,98,-99.99,,,0.00,Acu-Link.com,2013-02-05 21:37:00,
2013-02-05 15:52:00,81.3,80.7,29.73,SW,225,3.7,-999.0,98,-99.99,,,0.00,Acu-Link.com,2013-02-05 21:52:00,
2013-02-05 16:07:00,84.2,82.9,29.72,West,270,2.2,-999.0,96,-99.99,,,0.00,Acu-Link.com,2013-02-05 22:07:00,
2013-02-05 16:22:00,83.8,81.9,29.72,ESE,112,0.0,-999.0,94,-99.99,,,0.00,Acu-Link.com,2013-02-05 22:22:00,
2013-02-05 16:37:00,84.4,81.8,29.72,West,270,0.0,-999.0,92,-99.99,,,0.00,Acu-Link.com,2013-02-05 22:37:00,
2013-02-05 16:52:00,82.4,81.5,29.72,West,270,1.1,-999.0,97,-99.99,,,0.00,Acu-Link.com,2013-02-05 22:52:00,
2013-02-05 17:07:00,81.5,80.9,29.72,ESE,112,0.0,-999.0,98,-99.99,,,0.00,Acu-Link.com,2013-02-05 23:07:00,
2013-02-05 17:22:00,79.2,78.6,29.72,SSW,202,2.2,-999.0,98,-99.99,,,0.00,Acu-Link.com,2013-02-05 23:22:00,
2013-02-05 17:38:00,75.6,75.0,29.72,SSE,157,2.7,-999.0,98,-99.99,,,0.00,Acu-Link.com,2013-02-05 23:38:00,
2013-02-05 17:53:00,72.3,71.7,29.73,SSE,157,3.7,-999.0,98,-99.99,,,0.00,Acu-Link.com,2013-02-05 23:53:00,
2013-02-05 18:08:00,72.5,71.9,29.74,South,180,6.3,-999.0,98,-99.99,,,0.00,Acu-Link.com,2013-02-06 00:08:00,
2013-02-05 18:23:00,70.7,70.1,29.75,East,90,3.7,-999.0,98,-99.99,,,0.00,Acu-Link.com,2013-02-06 00:23:00,
2013-02-05 18:38:00,69.6,69.0,29.75,South,180,3.2,-999.0,98,-99.99,,,0.00,Acu-Link.com,2013-02-06 00:38:00,
2013-02-05 18:53:00,68.5,67.9,29.76,SSW,202,4.2,-999.0,98,-99.99,,,0.00,Acu-Link.com,2013-02-06 00:53:00,
2013-02-05 19:08:00,68.2,67.6,29.77,SSE,157,4.7,-999.0,98,-99.99,,,0.00,Acu-Link.com,2013-02-06 01:08:00,
2013-02-05 19:23:00,68.2,67.6,29.78,NW,315,2.2,-999.0,98,-99.99,,,0.00,Acu-Link.com,2013-02-06 01:23:00,
2013-02-05 19:38:00,68.0,67.4,29.78,ESE,112,4.7,-999.0,98,-99.99,,,0.00,Acu-Link.com,2013-02-06 01:38:00,
2013-02-05 19:54:00,68.2,67.6,29.78,South,180,0.0,-999.0,98,-99.99,,,0.00,Acu-Link.com,2013-02-06 01:54:00,
2013-02-05 20:09:00,68.4,67.8,29.79,WNW,292,2.7,-999.0,98,-99.99,,,0.00,Acu-Link.com,2013-02-06 02:09:00,
2013-02-05 20:24:00,68.4,67.8,29.79,South,180,2.2,-999.0,98,-99.99,,,0.00,Acu-Link.com,2013-02-06 02:24:00,
2013-02-05 20:39:00,68.4,67.8,29.80,ENE,67,1.7,-999.0,98,-99.99,,,0.00,Acu-Link.com,2013-02-06 02:39:00,
2013-02-05 20:54:00,68.2,67.6,29.80,SW,225,3.2,-999.0,98,-99.99,,,0.00,Acu-Link.com,2013-02-06 02:54:00,
2013-02-05 21:09:00,68.4,67.8,29.80,SE,135,2.7,-999.0,98,-99.99,,,0.00,Acu-Link.com,2013-02-06 03:09:00,
2013-02-05 21:24:00,68.2,67.6,29.80,SSE,157,2.7,-999.0,98,-99.99,,,0.00,Acu-Link.com,2013-02-06 03:24:00,
2013-02-05 21:39:00,68.2,67.6,29.80,SSE,157,3.2,-999.0,98,-99.99,,,0.00,Acu-Link.com,2013-02-06 03:39:00,
2013-02-05 21:54:00,68.2,67.6,29.81,WSW,247,0.0,-999.0,98,-99.99,,,0.00,Acu-Link.com,2013-02-06 03:54:00,
2013-02-05 22:10:00,67.8,67.2,29.81,SSW,202,2.7,-999.0,98,-99.99,,,0.00,Acu-Link.com,2013-02-06 04:10:00,
2013-02-05 22:25:00,67.8,67.2,29.81,SSE,157,2.2,-999.0,98,-99.99,,,0.00,Acu-Link.com,2013-02-06 04:25:00,
2013-02-05 22:40:00,67.8,67.2,29.82,East,90,4.7,-999.0,98,-99.99,,,0.00,Acu-Link.com,2013-02-06 04:40:00,
2013-02-05 22:55:00,68.0,67.4,29.82,ESE,112,0.0,-999.0,98,-99.99,,,0.00,Acu-Link.com,2013-02-06 04:55:00,
2013-02-05 23:10:00,67.8,67.2,29.83,WSW,247,2.7,-999.0,98,-99.99,,,0.00,Acu-Link.com,2013-02-06 05:10:00,
2013-02-05 23:25:00,67.6,67.0,29.83,NNE,22,3.2,-999.0,98,-99.99,,,0.00,Acu-Link.com,2013-02-06 05:25:00,
2013-02-05 23:40:00,67.5,66.9,29.82,ESE,112,2.7,-999.0,98,-99.99,,,0.00,Acu-Link.com,2013-02-06 05:40:00,
2013-02-05 23:55:00,66.9,66.3,29.82,South,180,4.2,-999.0,98,-99.99,,,0.00,Acu-Link.com,2013-02-06 05:55:00,